Time;durP1;ratioP1;P1;durP2;ratioP2;P2;SDS_P1;SDS_P2;PMS_P1;PMS_P2;Temp;Humidity;BMP_temperature;BMP_pressure;BME280_temperature;BME280_humidity;BME280_pressure;Samples;Min_cycle;Max_cycle;Signal;HPM_P1;HPM_P2
2022/08/23 00:01:15;;;;;;;;;0.75;0.75;;;;;24.36;87.71;101111.19;5058805;28;45232;-82
2022/08/23 00:03:42;;;;;;;;;1.00;1.00;;;;;24.38;87.48;101120.88;5058040;28;46162;-82
2022/08/23 00:06:09;;;;;;;;;0.00;0.00;;;;;24.38;87.87;101120.00;5058258;28;45635;-82
2022/08/23 00:08:35;;;;;;;;;1.00;1.00;;;;;24.39;87.74;101132.34;5051452;28;45304;-82
2022/08/23 00:11:00;;;;;;;;;0.75;0.75;;;;;24.40;87.69;101121.75;5038203;28;45198;-82
2022/08/23 00:13:27;;;;;;;;;1.00;1.00;;;;;24.40;88.56;101126.16;5037622;28;45352;-83
2022/08/23 00:15:54;;;;;;;;;1.00;1.00;;;;;24.40;87.82;101129.69;5037627;28;45786;-83
2022/08/23 00:18:19;;;;;;;;;1.00;1.00;;;;;24.38;88.60;101118.22;5037862;28;45456;-82
2022/08/23 00:20:46;;;;;;;;;1.50;1.50;;;;;24.40;88.56;101121.75;5037807;28;45404;-82
2022/08/23 00:23:13;;;;;;;;;3.00;2.00;;;;;24.39;88.86;101114.69;5037458;28;45493;-81
2022/08/23 00:25:38;;;;;;;;;2.00;2.00;;;;;24.35;88.32;101110.31;5036583;28;45550;-82
2022/08/23 00:28:04;;;;;;;;;2.50;2.00;;;;;24.36;88.51;101113.84;5037656;28;45269;-81
2022/08/23 00:30:30;;;;;;;;;1.50;1.50;;;;;24.36;88.72;101109.41;5037892;28;45629;-83
2022/08/23 00:32:56;;;;;;;;;1.00;1.00;;;;;24.35;88.84;101112.94;5037468;28;45742;-82
2022/08/23 00:35:22;;;;;;;;;1.00;1.00;;;;;24.32;89.27;101105.06;5037357;28;45435;-82
2022/08/23 00:37:48;;;;;;;;;1.75;1.75;;;;;24.33;89.54;101106.81;5037656;28;45426;-82
2022/08/23 00:40:17;;;;;;;;;1.00;1.00;;;;;24.31;89.43;101108.59;5037449;28;45466;-82
2022/08/23 00:48:59;;;;;;;;;1.50;1.00;;;;;24.22;91.45;101112.16;5037195;28;45373;-82
2022/08/23 00:51:46;;;;;;;;;1.00;1.00;;;;;24.20;91.32;101115.72;5037411;28;45516;-83
2022/08/23 00:54:14;;;;;;;;;0.50;0.50;;;;;24.15;91.61;101117.50;5036716;28;46436;-82
2022/08/23 00:56:41;;;;;;;;;1.00;1.00;;;;;24.12;92.31;101113.13;5037366;28;45690;-82
2022/08/23 00:59:07;;;;;;;;;2.00;2.00;;;;;24.15;93.14;101114.84;5037144;28;45268;-82
2022/08/23 01:01:34;;;;;;;;;1.25;1.00;;;;;24.14;92.75;101121.03;5019437;28;45313;-83
2022/08/23 01:04:00;;;;;;;;;1.00;1.00;;;;;24.09;92.44;101115.78;5036946;28;45529;-82
2022/08/23 01:06:49;;;;;;;;;1.25;1.25;;;;;24.10;93.21;101117.53;5019018;28;45842;-83
2022/08/23 01:09:18;;;;;;;;;3.25;2.00;;;;;24.10;93.13;101114.91;5037104;28;45431;-81
2022/08/23 01:11:53;;;;;;;;;1.00;1.00;;;;;24.10;93.74;101125.47;5037400;28;45557;-84
2022/08/23 01:14:48;;;;;;;;;1.00;1.00;;;;;24.12;93.25;101123.72;5036919;28;45955;-82
2022/08/23 01:17:26;;;;;;;;;2.00;2.00;;;;;24.14;93.05;101127.22;5028100;28;45662;-83
2022/08/23 01:19:57;;;;;;;;;2.25;2.00;;;;;24.16;93.80;101125.44;5036791;28;45312;-83
2022/08/23 01:22:41;;;;;;;;;1.75;1.75;;;;;24.18;92.97;101128.97;5045224;28;45357;-83
2022/08/23 01:25:11;;;;;;;;;2.00;1.00;;;;;24.20;93.34;101121.00;5056813;28;45407;-83
2022/08/23 01:27:38;;;;;;;;;2.00;2.00;;;;;24.22;92.43;101129.81;5056935;28;45293;-83
2022/08/23 01:30:06;;;;;;;;;1.75;1.00;;;;;24.23;92.34;101129.81;5056897;28;45387;-83
2022/08/23 01:32:40;;;;;;;;;2.75;1.00;;;;;24.21;93.12;101128.94;5056937;28;45459;-83
2022/08/23 01:35:06;;;;;;;;;0.00;0.00;;;;;24.23;92.77;101128.94;5056827;28;45994;-83
2022/08/23 01:37:33;;;;;;;;;1.00;1.00;;;;;24.21;92.57;101123.63;5044752;28;45345;-81
2022/08/23 01:39:58;;;;;;;;;1.75;1.00;;;;;24.21;93.26;101121.00;5036673;28;45296;-83
2022/08/23 01:42:24;;;;;;;;;1.00;1.00;;;;;24.23;92.18;101118.34;5036584;28;45356;-83
2022/08/23 01:44:50;;;;;;;;;0.50;0.50;;;;;24.21;92.85;101114.84;5036314;28;46258;-82
2022/08/23 01:47:16;;;;;;;;;1.00;1.00;;;;;24.20;92.47;101119.22;5036429;28;45321;-82
2022/08/23 01:49:41;;;;;;;;;0.00;0.00;;;;;24.18;93.14;101114.84;5036970;28;45205;-81
2022/08/23 01:52:07;;;;;;;;;0.50;0.50;;;;;24.19;93.42;101122.75;5037689;28;45496;-83
2022/08/23 01:54:33;;;;;;;;;0.75;0.50;;;;;24.16;93.26;101117.50;5034933;28;47172;-83
2022/08/23 01:56:58;;;;;;;;;1.00;1.00;;;;;24.14;93.35;101121.03;5036278;28;45322;-82
2022/08/23 01:59:24;;;;;;;;;1.00;1.00;;;;;24.13;92.94;101121.97;5049535;28;45339;-82
2022/08/23 02:01:51;;;;;;;;;2.00;1.00;;;;;24.08;94.19;101128.13;5056522;28;45676;-80
2022/08/23 02:04:17;;;;;;;;;1.00;1.00;;;;;24.03;94.16;101127.28;5057049;28;45819;-82
2022/08/23 02:06:42;;;;;;;;;0.50;0.50;;;;;24.00;94.67;101124.66;5060332;28;45410;-81
2022/08/23 02:09:08;;;;;;;;;1.00;1.00;;;;;23.97;94.37;101129.97;5059989;28;45414;-81
2022/08/23 02:11:37;;;;;;;;;1.00;1.00;;;;;23.98;94.57;101131.72;5060164;28;45493;-82
2022/08/23 02:14:07;;;;;;;;;0.00;0.00;;;;;23.99;94.68;101124.66;5059726;28;46218;-82
2022/08/23 02:16:39;;;;;;;;;0.25;0.00;;;;;24.01;94.73;101125.53;5059831;28;45733;-81
2022/08/23 02:19:08;;;;;;;;;2.25;1.00;;;;;24.01;94.58;101122.88;5059789;28;45476;-81
2022/08/23 02:21:35;;;;;;;;;0.00;0.00;;;;;24.03;94.52;101123.78;5060153;28;45569;-81
2022/08/23 02:24:07;;;;;;;;;1.00;1.00;;;;;24.01;94.55;101123.78;5059757;28;45550;-81
2022/08/23 02:26:38;;;;;;;;;1.00;1.00;;;;;24.04;94.85;101134.31;5054336;28;45682;-82
2022/08/23 02:29:05;;;;;;;;;1.00;1.00;;;;;24.05;94.75;101138.72;5039807;28;45229;-82
2022/08/23 02:31:32;;;;;;;;;1.00;1.00;;;;;24.07;94.12;101138.75;5039888;28;45566;-82
2022/08/23 02:33:58;;;;;;;;;0.00;0.00;;;;;24.07;94.74;101136.09;5039434;28;45502;-81
2022/08/23 02:36:23;;;;;;;;;0.50;0.50;;;;;24.05;94.46;101138.72;5039444;28;45438;-82
2022/08/23 02:38:50;;;;;;;;;0.75;0.75;;;;;24.05;94.72;101137.88;5039803;28;45438;-83
2022/08/23 02:41:16;;;;;;;;;2.00;1.00;;;;;24.05;95.25;101135.22;5021986;28;45576;-82
2022/08/23 02:43:43;;;;;;;;;1.00;1.00;;;;;24.05;94.54;101136.09;5039348;28;45404;-83
2022/08/23 02:46:09;;;;;;;;;1.50;0.50;;;;;24.04;94.95;101131.69;5039182;28;45577;-81
2022/08/23 02:48:36;;;;;;;;;1.00;1.00;;;;;24.07;94.81;101139.59;5039170;28;45314;-82
2022/08/23 02:51:04;;;;;;;;;0.00;0.00;;;;;24.08;95.19;101137.84;5039502;28;45453;-82
2022/08/23 02:53:31;;;;;;;;;0.00;0.00;;;;;24.09;94.94;101136.94;5039010;28;45532;-82
2022/08/23 02:55:57;;;;;;;;;1.50;1.00;;;;;24.05;94.90;101130.78;5039146;28;45581;-82
2022/08/23 02:58:23;;;;;;;;;1.00;1.00;;;;;24.03;95.31;101135.22;5039268;28;45258;-81
2022/08/23 03:00:49;;;;;;;;;0.50;0.50;;;;;24.03;95.18;101134.34;5039876;28;45542;-82
2022/08/23 03:03:16;;;;;;;;;0.25;0.25;;;;;24.01;95.63;101131.72;5021100;28;46349;-82
2022/08/23 03:05:42;;;;;;;;;0.75;0.75;;;;;23.99;95.55;101144.06;5037625;28;45386;-83
2022/08/23 03:08:07;;;;;;;;;0.00;0.00;;;;;23.98;95.93;101144.06;5039441;28;45564;-82
2022/08/23 03:10:33;;;;;;;;;0.75;0.75;;;;;23.96;95.60;101144.09;5039409;28;45493;-82
2022/08/23 03:13:00;;;;;;;;;0.00;0.00;;;;;23.92;95.74;101139.66;5038758;28;45616;-82
2022/08/23 03:15:25;;;;;;;;;0.00;0.00;;;;;23.90;96.51;101147.59;5038757;28;45333;-82
2022/08/23 03:17:51;;;;;;;;;1.00;1.00;;;;;23.86;96.82;101143.25;5053352;28;45351;-81
2022/08/23 03:20:17;;;;;;;;;0.00;0.00;;;;;23.82;97.15;101146.78;5041548;28;45357;-82
2022/08/23 03:22:43;;;;;;;;;0.00;0.00;;;;;23.78;97.22;101142.38;5059041;28;45619;-82
2022/08/23 03:25:08;;;;;;;;;1.50;1.00;;;;;23.76;97.80;101141.50;5060019;28;45251;-82
2022/08/23 03:27:34;;;;;;;;;1.00;1.00;;;;;23.74;98.05;101146.78;5039119;28;45504;-82
2022/08/23 03:30:00;;;;;;;;;1.00;1.00;;;;;23.72;98.38;101148.56;5039111;28;45609;-82
2022/08/23 03:32:26;;;;;;;;;1.50;0.00;;;;;23.67;98.89;101142.44;5038647;28;45268;-82
2022/08/23 03:34:52;;;;;;;;;1.00;1.00;;;;;23.65;99.39;101136.28;5038878;28;45491;-82
2022/08/23 03:37:18;;;;;;;;;1.00;1.00;;;;;23.63;99.45;101138.03;5038991;28;45418;-83
2022/08/23 03:39:44;;;;;;;;;1.50;1.00;;;;;23.64;99.45;101153.00;5038834;28;45321;-82
2022/08/23 03:42:10;;;;;;;;;1.00;1.00;;;;;23.59;100.00;101138.94;5038510;28;45411;-81
2022/08/23 03:44:36;;;;;;;;;1.00;1.00;;;;;23.61;100.00;101155.66;5038464;28;45304;-82
2022/08/23 03:47:04;;;;;;;;;0.00;0.00;;;;;23.59;100.00;101158.31;5038539;28;45284;-82
2022/08/23 03:49:30;;;;;;;;;2.25;1.00;;;;;23.56;100.00;101158.31;5038878;28;45577;-82
2022/08/23 03:51:59;;;;;;;;;3.00;1.00;;;;;23.57;100.00;101159.22;5038498;28;45603;-81
2022/08/23 03:54:25;;;;;;;;;1.00;1.00;;;;;23.55;100.00;101174.19;5038720;28;45625;-78
2022/08/23 03:56:59;;;;;;;;;1.50;1.50;;;;;23.55;100.00;101174.19;5039754;28;45371;-82
2022/08/23 03:59:26;;;;;;;;;1.00;1.00;;;;;23.53;100.00;101178.59;5039007;28;45521;-78
2022/08/23 04:01:52;;;;;;;;;1.25;1.25;;;;;23.49;100.00;101180.38;5038268;28;45251;-82
2022/08/23 04:04:18;;;;;;;;;2.00;2.00;;;;;23.47;100.00;101183.03;5038126;28;45425;-82
2022/08/23 04:06:44;;;;;;;;;1.50;1.00;;;;;23.45;100.00;101183.91;5043976;28;45249;-83
2022/08/23 04:09:12;;;;;;;;;2.00;2.00;;;;;23.43;100.00;101191.84;5058638;28;45546;-83
2022/08/23 04:11:38;;;;;;;;;2.00;1.00;;;;;23.42;100.00;101182.16;5057282;28;45392;-83
2022/08/23 04:14:05;;;;;;;;;1.00;1.00;;;;;23.43;100.00;101194.50;5058144;28;45691;-83
2022/08/23 04:16:36;;;;;;;;;1.00;1.00;;;;;23.41;100.00;101184.81;5058131;28;45378;-83
2022/08/23 04:19:13;;;;;;;;;2.00;2.00;;;;;23.42;100.00;101179.50;5057898;28;45453;-84
2022/08/23 04:21:43;;;;;;;;;2.00;2.00;;;;;23.40;100.00;101185.69;5058065;28;46205;-82
2022/08/23 04:24:08;;;;;;;;;1.50;1.50;;;;;23.40;100.00;101186.56;5057959;28;45385;-83
2022/08/23 04:26:34;;;;;;;;;2.00;1.00;;;;;23.42;100.00;101194.50;5057925;28;45382;-83
2022/08/23 04:29:00;;;;;;;;;1.75;1.75;;;;;23.42;100.00;101194.50;5056883;28;45379;-82
2022/08/23 04:31:27;;;;;;;;;2.00;1.00;;;;;23.42;100.00;101202.44;5057814;28;46069;-82
2022/08/23 04:33:55;;;;;;;;;2.00;2.00;;;;;23.41;100.00;101192.75;5057869;28;45573;-82
2022/08/23 04:36:21;;;;;;;;;1.00;1.00;;;;;23.39;100.00;101198.00;5057863;28;45349;-82
2022/08/23 04:38:47;;;;;;;;;3.75;1.25;;;;;23.40;100.00;101198.91;5058059;28;45673;-84
2022/08/23 04:43:58;;;;;;;;;1.00;1.00;;;;;23.36;100.00;101200.69;5057789;28;45625;-82
2022/08/23 04:46:23;;;;;;;;;2.00;2.00;;;;;23.34;100.00;101202.44;5057958;28;45326;-82
2022/08/23 04:48:49;;;;;;;;;2.00;2.00;;;;;23.32;100.00;101209.47;5057477;28;45541;-84
2022/08/23 04:51:15;;;;;;;;;2.00;2.00;;;;;23.30;100.00;101208.59;5057303;28;45947;-83
2022/08/23 04:53:41;;;;;;;;;1.00;1.00;;;;;23.28;100.00;101202.44;5046349;28;45243;-84
2022/08/23 04:56:08;;;;;;;;;2.00;1.00;;;;;23.27;100.00;101206.84;5038885;28;45403;-84
2022/08/23 04:58:35;;;;;;;;;1.25;1.25;;;;;23.26;100.00;101213.00;5057504;28;45425;-84
2022/08/23 05:01:06;;;;;;;;;2.75;1.50;;;;;23.27;100.00;101211.28;5057126;28;46151;-84
2022/08/23 05:03:32;;;;;;;;;2.00;2.00;;;;;23.25;100.00;101216.53;5056918;28;45414;-83
2022/08/23 05:05:58;;;;;;;;;3.00;2.00;;;;;23.25;100.00;101216.53;5057371;28;45411;-85
2022/08/23 05:08:24;;;;;;;;;2.75;2.75;;;;;23.25;100.00;101211.25;5057499;28;45652;-83
2022/08/23 05:10:50;;;;;;;;;5.00;2.00;;;;;23.23;100.00;101213.00;5055821;28;46466;-83
2022/08/23 05:13:16;;;;;;;;;1.00;1.00;;;;;23.21;100.00;101214.81;5056997;28;45384;-83
2022/08/23 05:15:43;;;;;;;;;1.75;1.75;;;;;23.21;100.00;101219.19;5057145;28;45343;-82
2022/08/23 05:18:09;;;;;;;;;1.00;1.00;;;;;23.19;100.00;101209.50;5057272;28;45193;-83
2022/08/23 05:20:35;;;;;;;;;2.00;2.00;;;;;23.23;100.00;101212.16;5056811;28;45908;-83
2022/08/23 05:23:01;;;;;;;;;2.00;2.00;;;;;23.24;100.00;101214.78;5056891;28;45461;-82
2022/08/23 05:25:48;;;;;;;;;2.00;2.00;;;;;23.25;100.00;101210.38;5059768;28;45463;-83
2022/08/23 05:28:12;;;;;;;;;3.00;2.00;;;;;23.25;100.00;101210.38;5057027;28;45475;-84
2022/08/23 05:30:38;;;;;;;;;2.25;2.25;;;;;23.25;100.00;101213.91;5056717;28;46491;-83
2022/08/23 05:33:04;;;;;;;;;3.50;2.25;;;;;23.24;100.00;101217.41;5056639;28;45474;-83
2022/08/23 05:35:30;;;;;;;;;1.75;1.50;;;;;23.23;100.00;101226.22;5057191;28;45363;-81
2022/08/23 05:37:59;;;;;;;;;4.00;3.00;;;;;23.23;100.00;101231.50;5055533;28;45355;-81
2022/08/23 05:40:26;;;;;;;;;2.00;2.00;;;;;23.24;100.00;101233.25;5063823;28;45811;-83
2022/08/23 05:42:53;;;;;;;;;2.00;2.00;;;;;23.25;100.00;101237.66;5055736;28;45712;-83
2022/08/23 05:45:18;;;;;;;;;1.50;1.50;;;;;23.25;100.00;101231.53;5055891;28;45425;-84
2022/08/23 05:47:45;;;;;;;;;1.00;0.00;;;;;23.24;100.00;101232.41;5052783;28;45513;-78
2022/08/23 05:50:12;;;;;;;;;3.75;2.75;;;;;23.26;100.00;101235.94;5036373;28;46635;-83
2022/08/23 05:52:38;;;;;;;;;1.75;1.75;;;;;23.25;100.00;101228.88;5055702;28;45944;-85
2022/08/23 05:55:05;;;;;;;;;2.00;2.00;;;;;23.26;100.00;101233.28;5055390;28;45469;-84
2022/08/23 05:57:34;;;;;;;;;2.00;2.00;;;;;23.26;100.00;101236.78;5056222;28;45477;-83
2022/08/23 06:00:01;;;;;;;;;1.50;1.00;;;;;23.30;100.00;101232.38;5044829;28;46154;-85
2022/08/23 06:02:29;;;;;;;;;1.00;1.00;;;;;23.30;100.00;101235.91;5058718;28;45494;-83
2022/08/23 06:04:55;;;;;;;;;2.00;2.00;;;;;23.30;100.00;101240.31;5056122;28;45494;-85
2022/08/23 06:07:20;;;;;;;;;2.75;1.75;;;;;23.29;100.00;101239.44;5055711;28;45541;-83
2022/08/23 06:09:46;;;;;;;;;4.25;2.00;;;;;23.33;100.00;101235.88;5054530;28;45939;-82
2022/08/23 06:12:11;;;;;;;;;3.00;2.00;;;;;23.36;100.00;101236.78;5055216;28;45296;-81
2022/08/23 06:14:37;;;;;;;;;2.50;2.50;;;;;23.37;100.00;101238.53;5053956;28;45545;-84
2022/08/23 06:17:03;;;;;;;;;4.00;2.25;;;;;23.37;100.00;101236.78;5059175;28;45551;-81
2022/08/23 06:19:28;;;;;;;;;3.50;3.00;;;;;23.40;100.00;101239.41;5057053;28;45447;-80
2022/08/23 06:21:54;;;;;;;;;3.00;3.00;;;;;23.41;100.00;101249.09;5055599;28;45398;-78
2022/08/23 06:24:20;;;;;;;;;3.75;3.00;;;;;23.42;100.00;101248.22;5055923;28;45496;-80
2022/08/23 06:26:46;;;;;;;;;4.00;2.25;;;;;23.45;100.00;101252.63;5055627;28;45535;-79
2022/08/23 06:29:15;;;;;;;;;5.25;4.00;;;;;23.47;100.00;101251.75;5057203;28;45838;-79
2022/08/23 06:31:44;;;;;;;;;2.75;2.75;;;;;23.49;100.00;101255.25;5056868;28;45457;-84
2022/08/23 06:34:13;;;;;;;;;4.25;3.75;;;;;23.53;100.00;101260.53;5039519;28;45347;-78
2022/08/23 06:36:39;;;;;;;;;4.00;3.25;;;;;23.55;100.00;101259.63;5050159;28;45704;-78
2022/08/23 06:39:07;;;;;;;;;3.00;3.00;;;;;23.58;100.00;101257.00;5053133;28;45632;-79
2022/08/23 06:41:33;;;;;;;;;4.00;3.75;;;;;23.61;100.00;101258.75;5053079;28;45420;-76
2022/08/23 06:43:58;;;;;;;;;5.50;3.00;;;;;23.65;100.00;101269.31;5054516;28;45386;-78
2022/08/23 06:46:27;;;;;;;;;4.00;4.00;;;;;23.70;100.00;101268.44;5037577;28;45351;-78
2022/08/23 06:48:53;;;;;;;;;5.00;3.00;;;;;23.74;100.00;101265.78;5055796;28;46335;-77
2022/08/23 06:51:28;;;;;;;;;3.00;3.00;;;;;23.75;100.00;101264.91;5056281;28;45380;-78
2022/08/23 06:53:56;;;;;;;;;3.25;2.75;;;;;23.77;100.00;101268.41;5060948;28;45360;-78
2022/08/23 06:56:23;;;;;;;;;2.25;2.00;;;;;23.83;100.00;101264.88;5067525;28;45282;-78
2022/08/23 06:58:50;;;;;;;;;3.00;2.00;;;;;23.92;100.00;101266.59;5067092;28;45472;-78
2022/08/23 07:01:33;;;;;;;;;3.50;3.00;;;;;23.97;100.00;101259.56;5060201;28;45405;-79
2022/08/23 07:04:01;;;;;;;;;3.25;2.00;;;;;24.00;100.00;101270.16;5040054;28;45392;-77
2022/08/23 07:06:29;;;;;;;;;2.00;2.00;;;;;23.99;100.00;101265.72;5058108;28;45987;-78
2022/08/23 07:08:55;;;;;;;;;3.75;2.25;;;;;24.01;100.00;101277.19;5058668;28;46335;-78
2022/08/23 07:11:21;;;;;;;;;3.00;1.75;;;;;24.02;100.00;101280.72;5059486;28;45706;-78
2022/08/23 07:13:47;;;;;;;;;3.00;3.00;;;;;24.03;100.00;101272.75;5058944;28;45391;-79
2022/08/23 07:16:16;;;;;;;;;2.25;2.25;;;;;24.10;100.00;101286.84;5041380;28;45315;-78
2022/08/23 07:18:43;;;;;;;;;4.50;3.00;;;;;24.17;100.00;101290.34;5025495;28;46914;-76
2022/08/23 07:21:11;;;;;;;;;3.00;2.00;;;;;24.24;100.00;101294.75;5062125;28;45410;-78
2022/08/23 07:23:38;;;;;;;;;2.50;2.50;;;;;24.32;100.00;101290.28;5065495;28;45373;-79
2022/08/23 07:26:09;;;;;;;;;3.00;2.00;;;;;24.45;100.00;101290.22;5065620;28;45513;-79
2022/08/23 07:28:35;;;;;;;;;2.00;2.00;;;;;24.53;100.00;101283.97;5060337;28;45388;-79
2022/08/23 07:31:20;;;;;;;;;3.00;3.00;;;;;24.63;100.00;101290.13;5041226;28;45345;-78
2022/08/23 07:33:47;;;;;;;;;5.50;4.00;;;;;24.72;100.00;101290.09;5059166;28;45387;-78
2022/08/23 07:36:17;;;;;;;;;2.25;2.25;;;;;24.79;100.00;101295.34;5059150;28;45436;-78
2022/08/23 07:38:44;;;;;;;;;4.25;3.00;;;;;24.84;100.00;101299.72;5058712;28;45406;-78
2022/08/23 07:41:11;;;;;;;;;4.00;3.50;;;;;24.89;100.00;101297.03;5040686;28;45722;-78
2022/08/23 07:43:38;;;;;;;;;3.00;3.00;;;;;24.92;100.00;101302.31;5058084;28;45517;-80
2022/08/23 07:46:05;;;;;;;;;2.00;2.00;;;;;24.97;100.00;101296.97;5061978;28;45425;-82
2022/08/23 07:48:32;;;;;;;;;4.00;3.00;;;;;25.07;100.00;101297.81;5073919;28;45443;-80
2022/08/23 07:51:01;;;;;;;;;3.00;3.00;;;;;25.14;100.00;101304.81;5073639;28;44886;-80
2022/08/23 07:53:27;;;;;;;;;1.00;1.00;;;;;25.17;100.00;101303.00;5051888;28;45339;-80
2022/08/23 07:55:54;;;;;;;;;5.00;2.00;;;;;25.21;100.00;101301.22;5061409;28;45506;-79
2022/08/23 07:58:21;;;;;;;;;2.00;2.00;;;;;25.27;100.00;101313.56;5060397;28;46217;-79
2022/08/23 08:00:47;;;;;;;;;3.50;3.00;;;;;25.28;100.00;101304.69;5058388;28;45679;-79
2022/08/23 08:03:15;;;;;;;;;2.25;2.25;;;;;25.32;100.00;101304.63;5058675;28;45357;-78
2022/08/23 08:05:40;;;;;;;;;3.25;2.50;;;;;25.34;100.00;101305.50;5061823;28;45339;-79
2022/08/23 08:08:07;;;;;;;;;2.50;2.50;;;;;25.31;100.00;101305.56;5062432;28;46077;-79
2022/08/23 08:10:37;;;;;;;;;1.75;1.75;;;;;25.26;100.00;101309.13;5067008;28;45769;-78
2022/08/23 08:13:03;;;;;;;;;4.00;2.75;;;;;25.17;100.00;101305.66;5063522;28;45221;-80
2022/08/23 08:15:33;;;;;;;;;3.50;3.00;;;;;25.11;100.00;101313.66;5061983;28;45386;-77
2022/08/23 08:17:58;;;;;;;;;3.25;3.25;;;;;25.06;100.00;101314.59;5064659;28;45389;-78
2022/08/23 08:20:29;;;;;;;;;3.25;3.25;;;;;25.01;100.00;101307.53;5058287;28;45395;-78
2022/08/23 08:22:56;;;;;;;;;5.00;2.75;;;;;25.01;100.00;101312.84;5057474;28;45351;-79
2022/08/23 08:25:21;;;;;;;;;3.00;3.00;;;;;25.04;100.00;101318.13;5058833;28;45394;-78
2022/08/23 08:27:47;;;;;;;;;3.00;2.50;;;;;25.06;100.00;101317.22;5058201;28;45818;-75
2022/08/23 08:30:13;;;;;;;;;5.00;5.00;;;;;24.99;100.00;101313.75;5057163;28;45411;-79
2022/08/23 08:32:39;;;;;;;;;5.00;4.75;;;;;25.02;100.00;101324.34;5058109;28;45437;-75
2022/08/23 08:35:05;;;;;;;;;5.25;4.00;;;;;25.06;100.00;101328.69;5055947;28;45529;-74
2022/08/23 08:37:31;;;;;;;;;4.00;3.00;;;;;25.13;100.00;101326.88;5055760;28;45426;-74
2022/08/23 08:39:58;;;;;;;;;5.00;3.00;;;;;25.25;100.00;101331.22;5061722;28;45350;-75
2022/08/23 08:42:39;;;;;;;;;3.75;2.50;;;;;25.32;100.00;101331.16;5055329;28;45483;-75
2022/08/23 08:45:19;;;;;;;;;3.00;3.00;;;;;25.39;100.00;101331.97;5059915;28;45414;-75
2022/08/23 08:48:01;;;;;;;;;2.00;2.00;;;;;25.45;100.00;101331.97;5055708;28;45512;-75
2022/08/23 08:50:41;;;;;;;;;3.00;3.00;;;;;25.49;100.00;101327.50;5057151;28;45343;-75
2022/08/23 08:53:13;;;;;;;;;5.00;4.00;;;;;25.53;100.00;101326.59;5056196;28;45446;-74
2022/08/23 08:55:58;;;;;;;;;2.25;2.25;;;;;25.57;100.00;101328.31;5058220;28;45379;-74
2022/08/23 08:58:42;;;;;;;;;4.00;4.00;;;;;25.68;100.00;101325.56;5057703;28;45916;-77
2022/08/23 09:01:08;;;;;;;;;3.75;3.75;;;;;25.79;100.00;101333.41;5039458;28;45454;-76
2022/08/23 09:03:35;;;;;;;;;3.00;3.00;;;;;25.87;100.00;101336.84;5039603;28;45424;-77
2022/08/23 09:06:14;;;;;;;;;3.00;3.00;;;;;25.94;100.00;101327.06;5061115;28;45532;-77
2022/08/23 09:09:11;;;;;;;;;3.00;2.75;;;;;26.06;100.00;101334.88;5062893;28;46813;-75
2022/08/23 09:12:01;;;;;;;;;3.25;2.75;;;;;26.16;100.00;101342.75;5059269;28;45305;-78
2022/08/23 09:14:37;;;;;;;;;3.00;3.00;;;;;26.21;99.59;101348.91;5057623;28;45282;-75
2022/08/23 09:17:40;;;;;;;;;3.00;3.00;;;;;26.23;98.94;101350.66;5058307;28;45435;-76
2022/08/23 09:20:07;;;;;;;;;4.75;3.00;;;;;26.28;98.16;101342.63;5037554;28;45450;-75
2022/08/23 09:22:46;;;;;;;;;3.00;3.00;;;;;26.35;97.59;101340.78;5057252;28;45415;-75
2022/08/23 09:25:13;;;;;;;;;2.00;2.00;;;;;26.43;96.55;101341.53;5057609;28;45450;-78
2022/08/23 09:27:42;;;;;;;;;2.75;2.75;;;;;26.49;95.79;101344.13;5057446;28;45567;-75
2022/08/23 09:30:13;;;;;;;;;3.75;3.75;;;;;26.55;94.31;101346.69;5057425;28;45375;-79
2022/08/23 09:32:42;;;;;;;;;3.50;3.00;;;;;26.59;94.42;101339.56;5045898;28;45588;-78
2022/08/23 09:35:17;;;;;;;;;3.00;2.00;;;;;26.65;93.51;101349.22;5063055;28;45387;-76
2022/08/23 09:37:47;;;;;;;;;4.50;4.00;;;;;26.64;92.96;101336.84;5058164;28;45363;-76
2022/08/23 09:40:31;;;;;;;;;3.75;3.75;;;;;26.57;92.86;101333.38;5057131;28;45367;-76
2022/08/23 09:43:13;;;;;;;;;4.75;3.50;;;;;26.47;93.07;101343.28;5057263;28;45803;-75
2022/08/23 09:46:04;;;;;;;;;4.00;4.00;;;;;26.37;93.66;101339.84;5056776;28;45317;-74
2022/08/23 09:48:42;;;;;;;;;4.00;4.00;;;;;26.26;94.48;101333.78;5056605;28;45478;-75
2022/08/23 09:51:16;;;;;;;;;4.00;4.00;;;;;26.23;95.55;101337.38;5056900;28;45461;-78
2022/08/23 09:53:50;;;;;;;;;3.00;3.00;;;;;26.26;94.78;101336.44;5055374;28;45308;-77
2022/08/23 09:56:23;;;;;;;;;6.25;3.00;;;;;26.24;95.30;101341.78;5057908;28;45467;-75
2022/08/23 09:58:52;;;;;;;;;4.00;4.00;;;;;26.21;94.56;101343.59;5063742;28;45331;-75
2022/08/23 10:01:29;;;;;;;;;5.25;4.75;;;;;26.15;95.31;101339.25;5062439;28;45567;-76
2022/08/23 10:04:14;;;;;;;;;3.25;3.25;;;;;26.10;95.83;101336.66;5057115;28;45724;-77
2022/08/23 10:06:44;;;;;;;;;3.25;3.25;;;;;26.07;95.68;101331.34;5057346;28;45334;-75
2022/08/23 10:09:26;;;;;;;;;4.00;4.00;;;;;26.04;96.77;101335.81;5056964;28;45489;-76
2022/08/23 10:11:54;;;;;;;;;2.00;2.00;;;;;26.03;96.35;101329.59;5061188;28;45489;-74
2022/08/23 10:14:21;;;;;;;;;3.00;3.00;;;;;26.04;96.47;101323.41;5061141;28;45312;-75
2022/08/23 10:17:33;;;;;;;;;5.00;5.00;;;;;26.07;96.29;101325.16;5038971;28;45569;-76
2022/08/23 10:20:29;;;;;;;;;3.75;3.75;;;;;26.10;95.93;101322.47;5044031;28;45347;-76
2022/08/23 10:23:14;;;;;;;;;3.50;3.50;;;;;26.13;95.83;101322.44;5057773;28;46083;-76
2022/08/23 10:25:49;;;;;;;;;4.00;4.00;;;;;26.14;95.83;101326.88;5063789;28;45252;-76
2022/08/23 10:31:38;;;;;;;;;4.00;3.25;;;;;26.06;96.28;101310.13;5062342;28;45401;-75
2022/08/23 10:34:34;;;;;;;;;2.25;2.25;;;;;26.06;95.13;101304.81;5059875;28;45478;-75
2022/08/23 10:37:20;;;;;;;;;2.25;2.25;;;;;26.00;95.44;101302.22;5060068;28;45358;-77
2022/08/23 10:40:16;;;;;;;;;1.75;1.25;;;;;26.01;95.84;101304.00;5059759;28;45366;-75
2022/08/23 10:42:53;;;;;;;;;1.75;1.75;;;;;26.03;95.36;101300.41;5054312;28;45292;-76
2022/08/23 10:45:31;;;;;;;;;2.00;2.00;;;;;26.10;95.06;101293.28;5059601;28;46125;-76
2022/08/23 10:48:28;;;;;;;;;2.00;2.00;;;;;26.19;95.24;101300.28;5060660;28;45530;-77
2022/08/23 10:51:17;;;;;;;;;3.00;2.00;;;;;26.22;93.97;101302.91;5066420;28;45209;-76
2022/08/23 10:53:47;;;;;;;;;1.25;1.25;;;;;26.21;93.93;101298.47;5068179;28;45481;-78
2022/08/23 10:56:19;;;;;;;;;3.75;2.00;;;;;26.23;93.68;101296.69;5063849;28;45386;-75
2022/08/23 10:58:48;;;;;;;;;2.00;2.00;;;;;26.25;94.20;101294.88;5060992;28;45434;-80
2022/08/23 11:01:17;;;;;;;;;1.25;1.25;;;;;26.26;93.94;101286.00;5059798;28;45328;-76
2022/08/23 11:03:51;;;;;;;;;2.00;2.00;;;;;26.34;94.44;101292.13;5059352;28;45331;-76
2022/08/23 11:06:25;;;;;;;;;3.00;3.00;;;;;26.52;93.00;101293.63;5058177;28;45883;-76
2022/08/23 11:09:00;;;;;;;;;4.50;2.75;;;;;26.69;91.98;101295.16;5059473;28;45692;-75
2022/08/23 11:11:38;;;;;;;;;2.00;2.00;;;;;26.87;90.60;101294.06;5059596;28;45221;-76
2022/08/23 11:14:07;;;;;;;;;2.00;1.50;;;;;27.00;89.04;101289.41;5061261;28;45478;-75
2022/08/23 11:16:33;;;;;;;;;2.25;2.25;;;;;27.11;87.32;101283.91;5065739;28;46441;-75
2022/08/23 11:18:59;;;;;;;;;0.25;0.25;;;;;27.22;85.95;101278.41;5046734;28;45594;-76
2022/08/23 11:21:27;;;;;;;;;2.00;2.00;;;;;27.24;85.60;101280.13;5060261;28;45489;-76
2022/08/23 11:23:58;;;;;;;;;0.25;0.25;;;;;27.29;84.50;101280.06;5059851;28;45364;-76
2022/08/23 11:26:28;;;;;;;;;1.25;1.00;;;;;27.26;83.20;101282.78;5059243;28;46265;-76
2022/08/23 11:29:06;;;;;;;;;1.25;1.25;;;;;27.17;83.51;101284.69;5058953;28;45717;-76
2022/08/23 11:31:41;;;;;;;;;1.25;1.25;;;;;27.14;83.60;101279.44;5040918;28;45601;-77
2022/08/23 11:34:23;;;;;;;;;1.50;1.50;;;;;27.14;84.00;101284.75;5059134;28;45470;-77
2022/08/23 11:37:19;;;;;;;;;1.75;1.00;;;;;27.15;83.02;101282.97;5058460;28;45998;-76
2022/08/23 11:39:57;;;;;;;;;1.00;1.00;;;;;27.18;82.38;101285.56;5060539;28;45344;-80
2022/08/23 11:42:36;;;;;;;;;1.00;1.00;;;;;27.27;81.95;101289.84;5066068;28;45369;-78
2022/08/23 11:45:20;;;;;;;;;1.00;1.00;;;;;27.36;80.69;101279.06;5062378;28;45260;-79
2022/08/23 11:48:02;;;;;;;;;1.00;1.00;;;;;27.45;79.77;101276.28;5061530;28;46074;-80